Main page
METAR-TAF:

METAR-TAF

Airports :

London Southend Airport

London-Southend, England

latitude: 51-34N, longitude: 000-42E, elevation: 15 m

Current weather observation

The report was made 5 hours and 30 minutes ago, at 19:50 UTC
Wind 5 kt from the North
Temperature 7°C
Humidity 66%
Pressure 1013 hPa
Visibility 10 km or more
no clouds below 1500 m and no cumulonimbus

METAR: EGMC 241950Z 36005KT CAVOK 07/01 Q1013

Time: 02:20 (01:20 UTC)

Forecast

The report was made 8 hours and 23 minutes ago, at 16:57 UTC
Forecast valid from 24 at 18 UTC to 24 at 22 UTC
Wind 5 kt from the North/Northwest
Visibility 10 km or more
Few clouds at a height of 4500 ft

TAF: EGMC 241657Z 2418/2422 33005KT 9999 FEW045

Weather observations and forecasts of more than 4000 airports (METAR and TAF reports).

The available stations are represented by yellow and red dots on the map.

Hover mouse over dot to see the name of the station.

Then click to see weather observations and forecasts.

To change the map : click on the green buttons with a black cross to zoom in, on the green button with a dash to zoom out, or on the green arrows for adjacent maps.


METAR-TAF: